createdAt,value
2022-09-30T00:00:26.928Z,1.40
2022-09-30T00:01:26.990Z,1.70
2022-09-30T00:02:26.901Z,1.80
2022-09-30T00:03:26.892Z,1.80
2022-09-30T00:04:26.860Z,1.80
2022-09-30T00:05:26.854Z,1.50
2022-09-30T00:06:26.929Z,1.60
2022-09-30T00:07:26.844Z,1.70
2022-09-30T00:08:26.827Z,1.40
2022-09-30T00:09:26.983Z,1.60
2022-09-30T00:10:26.845Z,3.00
2022-09-30T00:11:26.859Z,4.10
2022-09-30T00:12:26.772Z,4.10
2022-09-30T00:13:26.774Z,4.20
2022-09-30T00:14:26.754Z,6.90
2022-09-30T00:15:26.744Z,6.10
2022-09-30T00:16:26.825Z,5.00
2022-09-30T00:17:26.769Z,4.40
2022-09-30T00:18:26.712Z,5.10
2022-09-30T00:19:26.699Z,4.50
2022-09-30T00:20:26.689Z,5.10
2022-09-30T00:21:26.784Z,4.70
2022-09-30T00:22:26.665Z,3.80
2022-09-30T00:23:26.749Z,6.00
2022-09-30T00:24:26.645Z,7.60
2022-09-30T00:25:26.660Z,7.70
2022-09-30T00:26:26.621Z,8.10
2022-09-30T00:27:26.622Z,7.20
2022-09-30T00:28:26.616Z,9.30
2022-09-30T00:29:26.694Z,10.00
2022-09-30T00:30:26.585Z,9.80
2022-09-30T00:31:26.642Z,10.00
2022-09-30T00:32:26.557Z,10.80
2022-09-30T00:33:26.545Z,10.60
2022-09-30T00:34:26.535Z,11.20
2022-09-30T00:35:26.629Z,11.70
2022-09-30T00:36:26.512Z,10.10
2022-09-30T00:37:26.515Z,10.80
2022-09-30T00:38:26.503Z,11.20
2022-09-30T00:39:26.480Z,11.30
2022-09-30T00:40:26.469Z,8.40
2022-09-30T00:41:26.489Z,7.50
2022-09-30T00:42:26.458Z,6.90
2022-09-30T00:43:26.452Z,5.70
2022-09-30T00:44:26.422Z,9.60
2022-09-30T00:45:26.410Z,8.10
2022-09-30T00:46:26.466Z,5.50
2022-09-30T00:47:26.433Z,6.20
2022-09-30T00:48:26.383Z,6.80
2022-09-30T00:49:26.387Z,8.00
2022-09-30T00:50:26.362Z,8.40
2022-09-30T00:51:26.348Z,6.10
2022-09-30T00:52:26.335Z,8.30
2022-09-30T00:53:26.386Z,8.90
2022-09-30T00:54:26.333Z,7.50
2022-09-30T00:55:26.312Z,9.10
2022-09-30T00:56:26.292Z,9.30
2022-09-30T00:57:26.306Z,8.80
2022-09-30T00:58:26.286Z,9.40
2022-09-30T00:59:26.545Z,9.60
2022-09-30T01:00:26.355Z,8.30
2022-09-30T01:01:26.267Z,9.70
2022-09-30T01:02:26.264Z,6.10
2022-09-30T01:03:26.225Z,6.10
2022-09-30T01:04:26.226Z,3.40
2022-09-30T01:05:26.289Z,7.20
2022-09-30T01:06:26.183Z,7.30
2022-09-30T01:07:26.177Z,6.70
2022-09-30T01:08:26.165Z,6.70
2022-09-30T01:09:26.166Z,5.50
2022-09-30T01:10:26.141Z,5.80
2022-09-30T01:11:26.234Z,5.90
2022-09-30T01:12:26.122Z,5.70
2022-09-30T01:13:26.133Z,4.80
2022-09-30T01:14:26.097Z,4.20
2022-09-30T01:15:26.084Z,4.00
2022-09-30T01:16:26.146Z,3.70
2022-09-30T01:17:26.157Z,3.70
2022-09-30T01:18:26.051Z,4.20
2022-09-30T01:19:26.042Z,4.60
2022-09-30T01:20:26.036Z,4.30
2022-09-30T01:21:26.023Z,4.30
2022-09-30T01:22:26.029Z,4.00
2022-09-30T01:23:26.073Z,3.60
2022-09-30T01:24:25.988Z,4.10
2022-09-30T01:25:25.977Z,3.70
2022-09-30T01:26:25.964Z,3.60
2022-09-30T01:27:25.955Z,3.20
2022-09-30T01:28:25.955Z,3.00
2022-09-30T01:29:25.989Z,3.10
2022-09-30T01:30:25.921Z,3.20
2022-09-30T01:31:25.960Z,3.10
2022-09-30T01:32:25.900Z,3.50
2022-09-30T01:33:26.155Z,3.50
2022-09-30T01:34:25.877Z,3.30
2022-09-30T01:35:25.929Z,3.40
2022-09-30T01:36:25.854Z,3.40
2022-09-30T01:37:25.893Z,2.90
2022-09-30T01:38:25.835Z,2.90
2022-09-30T01:39:25.836Z,3.10
2022-09-30T01:40:25.812Z,2.70
2022-09-30T01:41:25.853Z,2.70
2022-09-30T01:42:25.801Z,2.70
2022-09-30T01:43:25.785Z,2.80
2022-09-30T01:44:25.789Z,2.80
2022-09-30T01:45:25.785Z,2.40
2022-09-30T01:46:25.798Z,3.00
2022-09-30T01:47:25.740Z,2.90
2022-09-30T01:48:25.728Z,2.90
2022-09-30T01:49:25.723Z,2.80
2022-09-30T01:50:25.719Z,2.70
2022-09-30T01:51:25.690Z,4.10
2022-09-30T01:52:25.687Z,2.90
2022-09-30T01:53:25.675Z,2.90
2022-09-30T01:54:25.666Z,3.10
2022-09-30T01:55:25.648Z,3.10
2022-09-30T01:56:25.646Z,3.40
2022-09-30T01:57:25.627Z,3.00
2022-09-30T01:58:25.619Z,2.70
2022-09-30T01:59:25.603Z,3.00
2022-09-30T02:00:25.654Z,3.70
2022-09-30T02:01:25.620Z,3.70
2022-09-30T02:02:25.669Z,3.90
2022-09-30T02:03:25.561Z,5.00
2022-09-30T02:04:25.554Z,4.30
2022-09-30T02:05:25.552Z,3.60
2022-09-30T02:06:25.523Z,3.50
2022-09-30T02:07:25.529Z,3.40
2022-09-30T02:08:25.505Z,4.80
2022-09-30T02:09:25.675Z,3.60
2022-09-30T02:10:25.483Z,3.40
2022-09-30T02:11:25.469Z,2.80
2022-09-30T02:12:25.473Z,2.80
2022-09-30T02:13:25.447Z,2.60
2022-09-30T02:14:25.435Z,2.60
2022-09-30T02:15:25.428Z,2.50
2022-09-30T02:16:25.523Z,2.20
2022-09-30T02:17:25.536Z,1.90
2022-09-30T02:18:25.397Z,2.40
2022-09-30T02:19:25.465Z,2.40
2022-09-30T02:20:25.378Z,2.10
2022-09-30T02:21:25.367Z,1.80
2022-09-30T02:22:25.421Z,1.90
2022-09-30T02:23:25.350Z,1.90
2022-09-30T02:24:25.333Z,1.60
2022-09-30T02:25:25.321Z,1.50
2022-09-30T02:26:25.311Z,1.30
2022-09-30T02:27:25.346Z,1.50
2022-09-30T02:28:25.290Z,1.40
2022-09-30T02:29:25.284Z,1.60
2022-09-30T02:30:25.265Z,1.00
2022-09-30T02:31:25.307Z,1.20
2022-09-30T02:32:25.240Z,1.30
2022-09-30T02:33:25.335Z,1.20
2022-09-30T02:34:25.218Z,1.20
2022-09-30T02:35:25.226Z,1.10
2022-09-30T02:36:25.196Z,1.40
2022-09-30T02:37:25.186Z,1.40
2022-09-30T02:38:25.195Z,1.30
2022-09-30T02:39:25.246Z,1.40
2022-09-30T02:40:25.152Z,1.50
2022-09-30T02:41:25.165Z,1.50
2022-09-30T02:42:25.134Z,1.50
2022-09-30T02:43:25.120Z,1.40
2022-09-30T02:44:25.113Z,1.50
2022-09-30T02:45:25.180Z,1.40
2022-09-30T02:46:25.167Z,1.40
2022-09-30T02:47:25.080Z,1.40
2022-09-30T02:48:25.066Z,1.60
2022-09-30T02:49:25.077Z,1.40
2022-09-30T02:50:25.060Z,1.60
2022-09-30T02:51:25.136Z,1.40
2022-09-30T02:52:25.024Z,1.10
2022-09-30T02:53:25.017Z,1.80
2022-09-30T02:54:25.009Z,1.70
2022-09-30T02:55:24.993Z,1.30
2022-09-30T02:56:24.998Z,1.40
2022-09-30T02:57:25.040Z,1.90
2022-09-30T02:58:24.956Z,2.10
2022-09-30T02:59:24.946Z,1.80
2022-09-30T03:00:24.934Z,1.70
2022-09-30T03:01:24.926Z,1.40
2022-09-30T03:02:25.002Z,1.30
2022-09-30T03:03:25.072Z,1.30
2022-09-30T03:04:24.895Z,1.20
2022-09-30T03:05:24.920Z,1.00
2022-09-30T03:06:24.871Z,1.10
2022-09-30T03:07:24.868Z,1.10
2022-09-30T03:08:24.848Z,1.20
2022-09-30T03:09:25.022Z,0.90
2022-09-30T03:10:24.845Z,1.00
2022-09-30T03:11:24.816Z,1.10
2022-09-30T03:12:24.805Z,1.00
2022-09-30T03:13:24.794Z,1.00
2022-09-30T03:14:24.784Z,1.10
2022-09-30T03:15:24.863Z,1.20
2022-09-30T03:16:24.845Z,1.10
2022-09-30T03:17:24.756Z,1.20
2022-09-30T03:18:24.738Z,1.20
2022-09-30T03:19:24.861Z,1.10
2022-09-30T03:20:24.717Z,1.10
2022-09-30T03:21:24.755Z,1.20
2022-09-30T03:22:24.697Z,1.10
2022-09-30T03:23:24.685Z,1.10
2022-09-30T03:24:24.675Z,1.10
2022-09-30T03:25:24.665Z,1.20
2022-09-30T03:26:24.653Z,1.10
2022-09-30T03:27:24.657Z,1.40
2022-09-30T03:28:24.753Z,1.30
2022-09-30T03:29:24.680Z,1.40
2022-09-30T03:30:24.916Z,1.30
2022-09-30T03:31:24.716Z,1.20
2022-09-30T03:32:24.592Z,0.90
2022-09-30T03:33:24.587Z,1.10
2022-09-30T03:34:24.674Z,1.00
2022-09-30T03:35:24.566Z,1.00
2022-09-30T03:36:24.554Z,1.00
2022-09-30T03:37:24.571Z,0.90
2022-09-30T03:38:24.525Z,0.80
2022-09-30T03:39:24.511Z,0.90
2022-09-30T03:40:24.576Z,0.90
2022-09-30T03:41:24.499Z,0.80
2022-09-30T03:42:24.497Z,0.90
2022-09-30T03:43:24.469Z,0.80
2022-09-30T03:44:24.457Z,1.00
2022-09-30T03:45:24.446Z,0.80
2022-09-30T03:46:24.534Z,0.80
2022-09-30T03:47:24.427Z,0.70
2022-09-30T03:48:24.544Z,0.70
2022-09-30T03:49:24.405Z,0.70
2022-09-30T03:50:24.401Z,0.50
2022-09-30T03:51:24.386Z,0.70
2022-09-30T03:52:24.393Z,0.60
2022-09-30T03:53:24.393Z,0.50
2022-09-30T03:54:24.362Z,0.50
2022-09-30T03:55:24.342Z,0.60
2022-09-30T03:56:24.337Z,0.50
2022-09-30T03:57:24.322Z,0.50
2022-09-30T03:58:24.383Z,0.50
2022-09-30T03:59:24.313Z,0.60
2022-09-30T04:00:24.355Z,0.60
2022-09-30T04:01:24.275Z,0.60
2022-09-30T04:02:24.332Z,0.60
2022-09-30T04:03:24.257Z,0.50
2022-09-30T04:04:24.312Z,0.60
2022-09-30T04:05:24.227Z,0.60
2022-09-30T04:06:24.232Z,0.70
2022-09-30T04:07:24.211Z,0.70
2022-09-30T04:08:24.195Z,0.70
2022-09-30T04:09:24.505Z,0.70
2022-09-30T04:10:24.265Z,0.70
2022-09-30T04:11:24.178Z,0.50
2022-09-30T04:12:24.152Z,0.60
2022-09-30T04:13:24.155Z,0.50
2022-09-30T04:14:24.133Z,0.50
2022-09-30T04:15:24.120Z,0.60
2022-09-30T04:16:24.236Z,0.50
2022-09-30T04:17:24.115Z,0.40
2022-09-30T04:18:24.090Z,0.50
2022-09-30T04:19:24.156Z,0.50
2022-09-30T04:20:24.069Z,0.40
2022-09-30T04:21:24.058Z,0.40
2022-09-30T04:22:26.598Z,0.40
2022-09-30T04:23:24.035Z,0.50
2022-09-30T04:24:24.021Z,0.50
2022-09-30T04:25:24.034Z,0.70
2022-09-30T04:26:24.000Z,0.80
2022-09-30T04:27:23.989Z,0.70
2022-09-30T04:28:24.081Z,0.70
2022-09-30T04:29:24.151Z,0.60
2022-09-30T04:30:27.226Z,0.60
2022-09-30T04:31:25.043Z,0.80
2022-09-30T04:32:23.951Z,0.70
2022-09-30T04:33:23.925Z,0.80
2022-09-30T04:34:23.997Z,0.90
2022-09-30T04:35:23.908Z,0.80
2022-09-30T04:36:23.915Z,0.80
2022-09-30T04:37:23.887Z,0.80
2022-09-30T04:38:23.872Z,1.00
2022-09-30T04:39:24.023Z,0.80
2022-09-30T04:40:23.911Z,0.90
2022-09-30T04:41:23.864Z,0.90
2022-09-30T04:42:23.843Z,1.10
2022-09-30T04:43:23.815Z,1.10
2022-09-30T04:44:23.817Z,1.20
2022-09-30T04:45:23.820Z,1.20
2022-09-30T04:46:23.889Z,1.00
2022-09-30T04:47:23.791Z,1.00
2022-09-30T04:48:23.765Z,1.20
2022-09-30T04:49:24.165Z,1.10
2022-09-30T04:50:23.743Z,1.10
2022-09-30T04:51:23.729Z,1.30
2022-09-30T04:52:23.756Z,1.10
2022-09-30T04:53:23.817Z,1.30
2022-09-30T04:54:23.698Z,1.50
2022-09-30T04:55:23.688Z,1.50
2022-09-30T04:56:23.674Z,1.60
2022-09-30T04:57:23.689Z,1.70
2022-09-30T04:58:23.720Z,3.10
2022-09-30T04:59:23.903Z,4.10
2022-09-30T05:00:23.631Z,2.70
2022-09-30T05:01:23.668Z,2.60
2022-09-30T05:02:23.636Z,2.90
2022-09-30T05:03:23.603Z,2.60
2022-09-30T05:04:23.661Z,3.80
2022-09-30T05:05:23.595Z,5.80
2022-09-30T05:06:23.568Z,5.80
2022-09-30T05:07:23.560Z,6.10
2022-09-30T05:08:23.547Z,5.80
2022-09-30T05:09:23.768Z,5.70
2022-09-30T05:10:23.596Z,4.10
2022-09-30T05:11:23.527Z,5.00
2022-09-30T05:12:23.501Z,5.10
2022-09-30T05:13:23.515Z,3.10
2022-09-30T05:14:23.482Z,3.30
2022-09-30T05:15:23.468Z,3.50
2022-09-30T05:16:23.593Z,3.20
2022-09-30T05:17:23.449Z,3.70
2022-09-30T05:18:23.439Z,3.60
2022-09-30T05:19:23.574Z,3.10
2022-09-30T05:20:23.413Z,3.20
2022-09-30T05:21:23.418Z,2.90
2022-09-30T05:22:23.493Z,3.10
2022-09-30T05:23:23.381Z,2.90
2022-09-30T05:24:23.374Z,3.10
2022-09-30T05:25:23.362Z,3.20
2022-09-30T05:26:23.350Z,3.00
2022-09-30T05:27:23.350Z,3.60
2022-09-30T05:28:24.026Z,4.80
2022-09-30T05:29:23.456Z,5.50
2022-09-30T05:30:23.307Z,5.60
2022-09-30T05:31:23.418Z,5.20
2022-09-30T05:32:23.288Z,5.10
2022-09-30T05:33:23.278Z,5.40
2022-09-30T05:34:23.336Z,11.00
2022-09-30T05:35:23.264Z,8.50
2022-09-30T05:36:23.261Z,7.80
2022-09-30T05:37:23.232Z,9.40
2022-09-30T05:38:23.219Z,9.50
2022-09-30T05:39:23.311Z,9.50
2022-09-30T05:40:23.261Z,9.40
2022-09-30T05:41:23.188Z,8.80
2022-09-30T05:42:23.190Z,9.00
2022-09-30T05:43:23.163Z,10.10
2022-09-30T05:44:23.187Z,8.90
2022-09-30T05:45:23.169Z,7.60
2022-09-30T05:46:23.252Z,8.00
2022-09-30T05:47:23.126Z,9.80
2022-09-30T05:48:23.112Z,9.70
2022-09-30T05:49:23.193Z,9.00
2022-09-30T05:50:23.093Z,6.60
2022-09-30T05:51:23.090Z,6.00
2022-09-30T05:52:23.176Z,7.00
2022-09-30T05:53:23.055Z,4.10
2022-09-30T05:54:23.043Z,9.10
2022-09-30T05:55:23.034Z,8.30
2022-09-30T05:56:23.036Z,7.00
2022-09-30T05:57:23.013Z,5.30
2022-09-30T05:58:23.089Z,4.10
2022-09-30T05:59:23.152Z,3.50
2022-09-30T06:00:22.983Z,8.20
2022-09-30T06:01:23.032Z,3.80
2022-09-30T06:02:23.082Z,3.10
2022-09-30T06:03:22.968Z,3.70
2022-09-30T06:04:22.987Z,5.60
2022-09-30T06:05:22.930Z,5.90
2022-09-30T06:06:22.916Z,4.00
2022-09-30T06:07:22.904Z,3.40
2022-09-30T06:08:22.896Z,3.50
2022-09-30T06:09:23.186Z,3.90
2022-09-30T06:10:22.924Z,3.60
2022-09-30T06:11:22.865Z,6.30
2022-09-30T06:12:22.850Z,6.40
2022-09-30T06:13:22.858Z,3.80
2022-09-30T06:14:22.830Z,3.50
2022-09-30T06:15:22.816Z,3.70
2022-09-30T06:16:22.929Z,2.80
2022-09-30T06:17:22.824Z,2.90
2022-09-30T06:18:22.788Z,2.70
2022-09-30T06:19:22.899Z,3.00
2022-09-30T06:20:22.765Z,3.30
2022-09-30T06:21:22.773Z,3.60
2022-09-30T06:22:22.885Z,3.10
2022-09-30T06:23:22.731Z,3.00
2022-09-30T06:24:22.722Z,2.80
2022-09-30T06:25:22.713Z,2.90
2022-09-30T06:26:22.698Z,3.40
2022-09-30T06:27:22.698Z,5.70
2022-09-30T06:28:22.741Z,5.40
2022-09-30T06:29:22.759Z,2.60
2022-09-30T06:30:22.659Z,2.90
2022-09-30T06:31:22.771Z,3.20
2022-09-30T06:32:22.645Z,4.00
2022-09-30T06:33:22.651Z,3.40
2022-09-30T06:34:22.617Z,2.60
2022-09-30T06:35:22.815Z,3.20
2022-09-30T06:36:22.664Z,2.80
2022-09-30T06:37:22.592Z,2.80
2022-09-30T06:38:22.569Z,2.60
2022-09-30T06:39:22.704Z,2.40
2022-09-30T06:40:22.548Z,3.30
2022-09-30T06:41:22.541Z,2.60
2022-09-30T06:42:22.616Z,2.00
2022-09-30T06:43:22.516Z,2.40
2022-09-30T06:44:22.586Z,2.60
2022-09-30T06:45:31.105Z,2.60
2022-09-30T06:46:28.474Z,2.40
2022-09-30T06:47:25.887Z,1.90
2022-09-30T06:48:35.678Z,1.90
2022-09-30T06:49:23.651Z,1.50
2022-09-30T06:50:25.737Z,1.40
2022-09-30T06:51:22.429Z,1.00
2022-09-30T06:52:22.419Z,1.10
2022-09-30T06:53:22.416Z,1.20
2022-09-30T06:54:22.395Z,1.10
2022-09-30T06:55:22.393Z,1.30
2022-09-30T06:56:22.454Z,1.20
2022-09-30T06:57:22.381Z,1.20
2022-09-30T06:58:22.351Z,1.30
2022-09-30T06:59:22.475Z,1.40
2022-09-30T07:00:22.332Z,1.10
2022-09-30T07:01:22.385Z,1.30
2022-09-30T07:02:22.452Z,1.10
2022-09-30T07:03:22.307Z,1.20
2022-09-30T07:04:22.292Z,1.10
2022-09-30T07:05:22.297Z,1.10
2022-09-30T07:06:22.268Z,1.10
2022-09-30T07:07:22.332Z,1.10
2022-09-30T07:08:22.310Z,1.40
2022-09-30T07:09:22.657Z,1.20
2022-09-30T07:10:22.225Z,1.20
2022-09-30T07:11:22.209Z,1.10
2022-09-30T07:12:22.209Z,1.30
2022-09-30T07:13:22.187Z,1.30
2022-09-30T07:14:22.241Z,1.30
2022-09-30T07:15:22.183Z,1.50
2022-09-30T07:16:22.250Z,2.00
2022-09-30T07:17:22.144Z,4.50
2022-09-30T07:18:22.138Z,2.50
2022-09-30T07:19:22.206Z,5.20
2022-09-30T07:20:22.185Z,2.60
2022-09-30T07:21:22.135Z,2.60
2022-09-30T07:22:22.091Z,1.90
2022-09-30T07:23:25.907Z,3.40
2022-09-30T07:24:22.069Z,2.70
2022-09-30T07:25:22.060Z,2.60
2022-09-30T07:26:22.127Z,4.20
2022-09-30T07:27:22.049Z,3.90
2022-09-30T07:28:22.026Z,2.90
2022-09-30T07:29:22.014Z,3.30
2022-09-30T07:30:27.119Z,6.00
2022-09-30T07:31:37.230Z,5.70
2022-09-30T07:32:23.267Z,6.50
2022-09-30T07:33:21.969Z,7.20
2022-09-30T07:34:21.956Z,8.00
2022-09-30T07:35:21.949Z,7.80
2022-09-30T07:36:21.938Z,8.50
2022-09-30T07:37:22.021Z,7.40
2022-09-30T07:38:22.019Z,9.10
2022-09-30T07:39:21.907Z,10.50
2022-09-30T07:40:21.895Z,9.80
2022-09-30T07:41:21.904Z,8.70
2022-09-30T07:42:22.997Z,12.90
2022-09-30T07:43:21.862Z,13.50
2022-09-30T07:44:21.933Z,11.00
2022-09-30T07:45:21.837Z,10.60
2022-09-30T07:46:21.829Z,12.50
2022-09-30T07:47:21.836Z,9.20
2022-09-30T07:48:21.808Z,8.60
2022-09-30T07:49:21.813Z,8.60
2022-09-30T07:50:21.797Z,9.60
2022-09-30T07:51:21.775Z,9.00
2022-09-30T07:52:21.834Z,8.30
2022-09-30T07:53:21.787Z,10.60
2022-09-30T07:54:21.739Z,9.40
2022-09-30T07:55:21.729Z,7.90
2022-09-30T07:56:21.789Z,11.30
2022-09-30T07:57:21.733Z,9.10
2022-09-30T07:58:21.697Z,9.90
2022-09-30T07:59:21.718Z,8.30
2022-09-30T08:00:41.775Z,9.20
2022-09-30T08:01:22.747Z,11.40
2022-09-30T08:02:21.766Z,12.40
2022-09-30T08:03:21.867Z,9.40
2022-09-30T08:04:21.629Z,6.20
2022-09-30T08:05:21.621Z,8.00
2022-09-30T08:06:21.632Z,6.00
2022-09-30T08:07:21.599Z,4.90
2022-09-30T08:08:21.663Z,5.20
2022-09-30T08:09:21.837Z,3.90
2022-09-30T08:10:21.569Z,4.70
2022-09-30T08:11:21.552Z,8.60
2022-09-30T08:12:21.544Z,8.30
2022-09-30T08:13:21.581Z,5.50
2022-09-30T08:14:21.595Z,5.00
2022-09-30T08:15:21.603Z,10.40
2022-09-30T08:16:21.535Z,12.10
2022-09-30T08:17:21.492Z,11.80
2022-09-30T08:18:21.480Z,11.40
2022-09-30T08:19:21.465Z,13.90
2022-09-30T08:20:22.591Z,14.20
2022-09-30T08:21:21.534Z,15.70
2022-09-30T08:22:21.435Z,14.00
2022-09-30T08:23:21.424Z,14.70
2022-09-30T08:24:21.473Z,13.60
2022-09-30T08:25:21.435Z,13.00
2022-09-30T08:26:21.404Z,13.70
2022-09-30T08:27:21.574Z,11.50
2022-09-30T08:28:21.370Z,6.10
2022-09-30T08:29:36.085Z,10.50
2022-09-30T08:30:22.355Z,7.90
2022-09-30T08:31:21.498Z,7.50
2022-09-30T08:32:21.323Z,4.90
2022-09-30T08:33:21.320Z,5.50
2022-09-30T08:34:21.413Z,4.80
2022-09-30T08:35:21.323Z,7.40
2022-09-30T08:36:21.296Z,12.00
2022-09-30T08:37:21.284Z,15.70
2022-09-30T08:38:21.260Z,10.80
2022-09-30T08:39:21.342Z,13.80
2022-09-30T08:40:21.390Z,14.00
2022-09-30T08:41:21.252Z,15.90
2022-09-30T08:42:38.734Z,7.00
2022-09-30T08:43:22.209Z,5.50
2022-09-30T08:44:21.208Z,4.90
2022-09-30T08:45:21.290Z,4.80
2022-09-30T08:46:21.220Z,4.50
2022-09-30T08:47:21.172Z,4.30
2022-09-30T08:48:21.190Z,4.20
2022-09-30T08:49:21.261Z,3.60
2022-09-30T08:50:21.153Z,3.50
2022-09-30T08:51:21.182Z,2.90
2022-09-30T08:52:30.589Z,2.90
2022-09-30T08:53:22.097Z,2.80
2022-09-30T08:54:21.098Z,2.90
2022-09-30T08:55:21.086Z,2.70
2022-09-30T08:56:21.067Z,2.90
2022-09-30T08:57:21.128Z,2.80
2022-09-30T08:58:21.042Z,3.10
2022-09-30T08:59:21.082Z,3.20
2022-09-30T09:00:21.134Z,2.90
2022-09-30T09:01:21.092Z,3.10
2022-09-30T09:02:21.345Z,3.20
2022-09-30T09:03:20.983Z,4.70
2022-09-30T09:04:21.168Z,3.30
2022-09-30T09:05:20.975Z,3.20
2022-09-30T09:06:20.957Z,3.80
2022-09-30T09:07:21.008Z,3.30
2022-09-30T09:08:20.933Z,3.00
2022-09-30T09:09:20.970Z,2.50
2022-09-30T09:10:20.987Z,2.60
2022-09-30T09:11:20.901Z,2.30
2022-09-30T09:12:20.889Z,2.20
2022-09-30T09:13:20.905Z,2.20
2022-09-30T09:14:20.881Z,2.60
2022-09-30T09:15:20.855Z,2.40
2022-09-30T09:16:20.953Z,2.50
2022-09-30T09:17:20.838Z,2.30
2022-09-30T09:18:24.877Z,2.60
2022-09-30T09:19:20.810Z,2.40
2022-09-30T09:20:20.812Z,2.20
2022-09-30T09:21:20.789Z,2.70
2022-09-30T09:22:24.615Z,2.40
2022-09-30T09:23:20.770Z,2.80
2022-09-30T09:24:20.756Z,2.50
2022-09-30T09:25:20.747Z,2.60
2022-09-30T09:26:20.754Z,2.60
2022-09-30T09:27:20.814Z,2.40
2022-09-30T09:28:20.857Z,3.30
2022-09-30T09:29:20.800Z,3.30
2022-09-30T09:30:20.693Z,2.90
2022-09-30T09:31:20.786Z,3.00
2022-09-30T09:32:20.683Z,3.00
2022-09-30T09:33:20.734Z,4.20
2022-09-30T09:34:20.652Z,6.20
2022-09-30T09:35:20.636Z,6.50
2022-09-30T09:36:20.625Z,8.50
2022-09-30T09:37:20.613Z,11.50
2022-09-30T09:38:20.613Z,9.10
2022-09-30T09:39:20.706Z,5.50
2022-09-30T09:40:20.581Z,6.90
2022-09-30T09:41:20.583Z,7.20
2022-09-30T09:42:20.561Z,8.40
2022-09-30T09:43:20.547Z,10.40
2022-09-30T09:44:20.562Z,9.60
2022-09-30T09:45:20.594Z,9.20
2022-09-30T09:46:20.578Z,8.80
2022-09-30T09:47:20.515Z,8.30
2022-09-30T09:48:20.506Z,6.30
2022-09-30T09:49:20.486Z,8.10
2022-09-30T09:50:20.474Z,6.30
2022-09-30T09:51:20.523Z,5.80
2022-09-30T09:52:20.446Z,7.20
2022-09-30T09:53:20.449Z,10.10
2022-09-30T09:54:20.425Z,9.90
2022-09-30T09:55:20.422Z,10.50
2022-09-30T09:56:20.406Z,9.80
2022-09-30T09:57:20.473Z,8.40
2022-09-30T09:58:20.387Z,10.70
2022-09-30T09:59:20.592Z,8.60
2022-09-30T10:00:20.361Z,3.60
2022-09-30T10:01:20.440Z,2.50
2022-09-30T10:02:20.367Z,2.60
2022-09-30T10:03:20.417Z,2.60
2022-09-30T10:04:20.322Z,2.30
2022-09-30T10:05:20.306Z,2.30
2022-09-30T10:06:20.297Z,2.20
2022-09-30T10:07:20.287Z,4.20
2022-09-30T10:08:20.287Z,3.40
2022-09-30T10:09:20.406Z,6.80
2022-09-30T10:10:23.701Z,7.30
2022-09-30T10:11:20.242Z,6.80
2022-09-30T10:12:20.231Z,7.40
2022-09-30T10:13:20.878Z,2.20
2022-09-30T10:14:20.241Z,2.40
2022-09-30T10:15:20.270Z,2.10
2022-09-30T10:16:20.263Z,2.40
2022-09-30T10:17:20.207Z,2.30
2022-09-30T10:18:20.185Z,2.30
2022-09-30T10:19:20.162Z,5.60
2022-09-30T10:20:20.144Z,6.70
2022-09-30T10:21:20.213Z,3.70
2022-09-30T10:22:20.120Z,2.80
2022-09-30T10:23:20.109Z,3.60
2022-09-30T10:24:20.101Z,3.60
2022-09-30T10:25:20.100Z,2.10
2022-09-30T10:26:20.178Z,2.20
2022-09-30T10:27:20.131Z,6.40
2022-09-30T10:28:20.200Z,11.20
2022-09-30T10:29:20.069Z,12.30
2022-09-30T10:30:20.036Z,12.70
2022-09-30T10:31:20.128Z,12.80
2022-09-30T10:32:20.084Z,9.70
2022-09-30T10:33:20.070Z,11.10
2022-09-30T10:34:19.990Z,11.20
2022-09-30T10:35:19.990Z,11.10
2022-09-30T10:36:19.968Z,4.50
2022-09-30T10:37:19.958Z,6.80
2022-09-30T10:38:19.945Z,5.70
2022-09-30T10:39:20.031Z,7.40
2022-09-30T10:40:19.928Z,5.20
2022-09-30T10:41:19.927Z,12.30
2022-09-30T10:42:25.089Z,10.00
2022-09-30T10:43:20.888Z,10.80
2022-09-30T10:44:19.876Z,6.60
2022-09-30T10:45:19.939Z,4.90
2022-09-30T10:46:26.253Z,3.30
2022-09-30T10:47:20.848Z,7.30
2022-09-30T10:48:19.834Z,2.90
2022-09-30T10:49:19.852Z,7.30
2022-09-30T10:50:19.812Z,2.80
2022-09-30T10:51:19.895Z,7.60
2022-09-30T10:52:19.802Z,8.80
2022-09-30T10:53:19.778Z,9.80
2022-09-30T10:54:19.774Z,4.30
2022-09-30T10:55:19.761Z,7.50
2022-09-30T10:56:19.749Z,3.00
2022-09-30T10:57:19.851Z,2.40
2022-09-30T10:58:19.727Z,10.00
2022-09-30T10:59:19.724Z,4.30
2022-09-30T11:00:19.714Z,3.30
2022-09-30T11:01:19.852Z,8.80
2022-09-30T11:02:22.816Z,7.30
2022-09-30T11:03:19.842Z,7.90
2022-09-30T11:04:19.717Z,3.10
2022-09-30T11:05:19.838Z,3.40
2022-09-30T11:06:19.639Z,4.20
2022-09-30T11:07:19.638Z,9.10
2022-09-30T11:08:19.628Z,10.00
2022-09-30T11:09:19.606Z,10.10
2022-09-30T11:10:19.698Z,7.50
2022-09-30T11:11:19.597Z,5.20
2022-09-30T11:12:19.844Z,9.30
2022-09-30T11:13:19.595Z,2.70
2022-09-30T11:14:19.549Z,2.90
2022-09-30T11:15:19.538Z,6.70
2022-09-30T11:16:19.609Z,12.60
2022-09-30T11:17:22.710Z,7.30
2022-09-30T11:18:19.518Z,3.60
2022-09-30T11:19:19.557Z,2.80
2022-09-30T11:20:19.490Z,3.20
2022-09-30T11:21:19.498Z,6.50
2022-09-30T11:22:19.533Z,3.60
2022-09-30T11:23:19.453Z,2.90
2022-09-30T11:24:19.458Z,2.80
2022-09-30T11:25:19.429Z,2.30
2022-09-30T11:26:19.422Z,2.50
2022-09-30T11:27:19.414Z,2.00
2022-09-30T11:28:19.494Z,2.80
2022-09-30T11:29:19.386Z,2.30
2022-09-30T11:30:19.391Z,2.50
2022-09-30T11:31:19.403Z,2.60
2022-09-30T11:32:19.358Z,4.70
2022-09-30T11:33:19.349Z,2.60
2022-09-30T11:34:19.341Z,2.40
2022-09-30T11:35:19.325Z,3.60
2022-09-30T11:36:19.325Z,4.90
2022-09-30T11:37:19.336Z,2.00
2022-09-30T11:38:19.287Z,7.70
2022-09-30T11:39:19.280Z,3.90
2022-09-30T11:40:19.265Z,5.50
2022-09-30T11:41:19.310Z,3.10
2022-09-30T11:42:19.346Z,4.30
2022-09-30T11:43:19.239Z,9.20
2022-09-30T11:44:19.252Z,11.60
2022-09-30T11:45:19.211Z,12.30
2022-09-30T11:46:19.362Z,15.30
2022-09-30T11:47:19.196Z,10.60
2022-09-30T11:48:19.199Z,11.50
2022-09-30T11:49:19.186Z,10.70
2022-09-30T11:50:19.165Z,11.70
2022-09-30T11:51:19.153Z,12.90
2022-09-30T11:52:19.133Z,9.70
2022-09-30T11:53:19.263Z,14.10
2022-09-30T11:54:19.113Z,14.00
2022-09-30T11:55:19.156Z,9.40
2022-09-30T11:56:19.095Z,12.50
2022-09-30T11:57:19.078Z,12.70
2022-09-30T11:58:40.059Z,13.40
2022-09-30T11:59:20.069Z,11.60
2022-09-30T12:00:19.046Z,8.20
2022-09-30T12:01:19.129Z,6.00
2022-09-30T12:02:19.130Z,2.70
2022-09-30T12:03:19.065Z,2.60
2022-09-30T12:04:19.008Z,2.60
2022-09-30T12:05:19.008Z,3.40
2022-09-30T12:06:18.984Z,3.40
2022-09-30T12:07:19.142Z,3.00
2022-09-30T12:08:18.965Z,6.50
2022-09-30T12:09:18.995Z,4.60
2022-09-30T12:10:18.939Z,7.70
2022-09-30T12:11:18.930Z,4.80
2022-09-30T12:12:18.914Z,3.90
2022-09-30T12:13:18.996Z,5.30
2022-09-30T12:14:18.908Z,4.10
2022-09-30T12:15:18.898Z,6.80
2022-09-30T12:16:18.911Z,12.80
2022-09-30T12:17:18.885Z,12.90
2022-09-30T12:18:18.854Z,13.00
2022-09-30T12:19:24.449Z,12.40
2022-09-30T12:20:19.827Z,9.10
2022-09-30T12:21:18.821Z,6.60
2022-09-30T12:22:18.809Z,6.80
2022-09-30T12:23:18.907Z,15.00
2022-09-30T12:24:18.798Z,10.10
2022-09-30T12:25:18.813Z,8.90
2022-09-30T12:26:18.772Z,16.20
2022-09-30T12:27:18.757Z,11.80
2022-09-30T12:28:18.796Z,10.90
2022-09-30T12:29:18.746Z,8.80
2022-09-30T12:30:18.796Z,12.30
2022-09-30T12:31:18.783Z,10.30
2022-09-30T12:32:18.710Z,11.90
2022-09-30T12:33:18.690Z,12.70
2022-09-30T12:34:18.698Z,9.60
2022-09-30T12:35:18.682Z,10.30
2022-09-30T12:36:18.736Z,14.90
2022-09-30T12:37:18.646Z,7.50
2022-09-30T12:38:18.641Z,9.20
2022-09-30T12:39:18.664Z,10.90
2022-09-30T12:40:18.636Z,8.60
2022-09-30T12:41:18.627Z,9.40
2022-09-30T12:42:18.657Z,3.10
2022-09-30T12:43:18.662Z,2.40
2022-09-30T12:44:18.710Z,2.60
2022-09-30T12:45:18.627Z,5.50
2022-09-30T12:46:18.641Z,8.40
2022-09-30T12:47:18.543Z,9.80
2022-09-30T12:48:18.549Z,8.30
2022-09-30T12:49:18.522Z,5.10
2022-09-30T12:50:18.571Z,8.30
2022-09-30T12:51:18.501Z,2.50
2022-09-30T12:52:18.511Z,9.80
2022-09-30T12:53:18.545Z,4.60
2022-09-30T12:54:18.484Z,9.00
2022-09-30T12:55:18.486Z,9.20
2022-09-30T12:56:18.443Z,8.20
2022-09-30T12:57:18.455Z,8.30
2022-09-30T12:58:18.480Z,11.00
2022-09-30T12:59:18.410Z,11.80
2022-09-30T13:00:18.432Z,10.20
2022-09-30T13:01:18.489Z,9.00
2022-09-30T13:02:18.419Z,3.30
2022-09-30T13:03:18.536Z,6.70
2022-09-30T13:04:18.369Z,5.70
2022-09-30T13:05:18.489Z,2.10
2022-09-30T13:06:20.869Z,2.00
2022-09-30T13:07:18.323Z,3.50
2022-09-30T13:08:22.751Z,6.50
2022-09-30T13:09:19.294Z,10.10
2022-09-30T13:10:18.300Z,10.10
2022-09-30T13:11:18.348Z,3.80
2022-09-30T13:12:18.267Z,2.70
2022-09-30T13:13:18.331Z,4.30
2022-09-30T13:14:20.302Z,8.60
2022-09-30T13:15:19.267Z,7.10